Time;durP1;ratioP1;P1;durP2;ratioP2;P2;SDS_P1;SDS_P2;PMS_P1;PMS_P2;Temp;Humidity;BMP_temperature;BMP_pressure;BME280_temperature;BME280_humidity;BME280_pressure;Samples;Min_cycle;Max_cycle;Signal;HPM_P1;HPM_P2
2023/12/14 00:00:19;;;;;;;14.27;9.67;;;3.40;86.50;;;;;;5024609;28;20674;-74
2023/12/14 00:02:45;;;;;;;18.50;10.37;;;3.40;86.40;;;;;;5026565;28;20096;-74
2023/12/14 00:05:11;;;;;;;16.57;10.13;;;3.40;86.30;;;;;;5021767;28;20490;-74
2023/12/14 00:07:36;;;;;;;14.27;10.70;;;3.40;86.30;;;;;;5024853;28;20061;-75
2023/12/14 00:10:04;;;;;;;16.87;11.30;;;3.30;86.10;;;;;;5024974;28;20358;-74
2023/12/14 00:12:30;;;;;;;13.90;10.93;;;3.40;86.20;;;;;;5020393;28;20504;-74
2023/12/14 00:14:56;;;;;;;18.97;11.27;;;3.40;86.10;;;;;;5025370;28;20045;-73
2023/12/14 00:17:21;;;;;;;19.63;11.80;;;3.30;86.10;;;;;;5024722;28;20049;-74
2023/12/14 00:19:47;;;;;;;14.40;11.70;;;3.30;86.20;;;;;;5026327;28;20089;-74
2023/12/14 00:22:13;;;;;;;14.87;10.93;;;3.30;86.00;;;;;;5024652;28;20053;-74
2023/12/14 00:24:38;;;;;;;17.47;10.97;;;3.30;86.10;;;;;;5025537;28;20382;-75
2023/12/14 00:27:04;;;;;;;20.03;12.07;;;3.30;86.10;;;;;;5029541;28;20065;-74
2023/12/14 00:29:30;;;;;;;19.23;11.23;;;3.30;86.10;;;;;;5024083;28;20071;-74
2023/12/14 00:31:56;;;;;;;20.47;11.93;;;3.30;86.10;;;;;;5024124;28;20052;-72
2023/12/14 00:34:21;;;;;;;20.93;12.40;;;3.30;86.10;;;;;;5025491;28;20196;-74
2023/12/14 00:36:47;;;;;;;20.13;10.97;;;3.30;86.00;;;;;;5023529;28;20061;-74
2023/12/14 00:39:13;;;;;;;18.67;11.00;;;3.30;86.10;;;;;;5024199;28;20132;-74
2023/12/14 00:41:38;;;;;;;18.10;11.10;;;3.30;86.10;;;;;;5024225;28;20253;-74
2023/12/14 00:44:04;;;;;;;14.47;11.10;;;3.30;86.10;;;;;;5026609;28;20160;-74
2023/12/14 00:46:30;;;;;;;16.80;10.57;;;3.30;86.00;;;;;;5027282;28;20077;-74
2023/12/14 00:48:55;;;;;;;16.07;11.10;;;3.30;86.00;;;;;;5026720;28;20060;-71
2023/12/14 00:51:21;;;;;;;19.10;10.20;;;3.30;85.90;;;;;;5026138;28;20091;-74
2023/12/14 00:53:46;;;;;;;14.43;10.40;;;3.30;86.00;;;;;;5027635;28;20058;-73
2023/12/14 00:56:12;;;;;;;13.80;9.47;;;3.30;86.00;;;;;;5008447;28;20061;-74
2023/12/14 00:58:38;;;;;;;12.27;9.13;;;3.30;86.00;;;;;;5008366;28;20176;-74
2023/12/14 01:01:04;;;;;;;16.50;9.33;;;3.30;86.00;;;;;;5025015;28;20057;-74
2023/12/14 01:03:29;;;;;;;16.50;9.47;;;3.30;86.00;;;;;;5020836;28;20179;-74
2023/12/14 01:05:55;;;;;;;16.20;10.23;;;3.30;86.00;;;;;;5024423;28;20052;-74
2023/12/14 01:08:20;;;;;;;15.10;9.37;;;3.30;85.90;;;;;;5019921;28;20053;-74
2023/12/14 01:10:46;;;;;;;17.80;11.43;;;3.30;86.00;;;;;;5020151;28;20180;-74
2023/12/14 01:13:12;;;;;;;16.77;11.07;;;3.30;86.00;;;;;;5007040;28;20080;-74
2023/12/14 01:15:37;;;;;;;16.07;10.80;;;3.30;86.00;;;;;;5006592;28;20423;-74
2023/12/14 01:18:03;;;;;;;19.17;10.90;;;3.30;86.10;;;;;;5017543;28;20134;-74
2023/12/14 01:20:29;;;;;;;16.47;12.23;;;3.30;86.10;;;;;;5026379;28;20089;-74
2023/12/14 01:22:54;;;;;;;18.37;12.60;;;3.30;86.00;;;;;;5026225;28;20044;-74
2023/12/14 01:25:20;;;;;;;18.53;11.93;;;3.30;86.10;;;;;;5026040;28;20172;-74
2023/12/14 01:27:46;;;;;;;20.70;12.83;;;3.30;86.20;;;;;;5024684;28;20132;-74
2023/12/14 01:30:12;;;;;;;22.63;13.10;;;3.30;86.30;;;;;;5024406;28;20133;-74
2023/12/14 01:32:37;;;;;;;24.73;13.27;;;3.30;86.30;;;;;;5021012;28;20058;-75
2023/12/14 01:35:04;;;;;;;25.60;14.53;;;3.30;86.30;;;;;;5005489;28;20560;-74
2023/12/14 01:37:29;;;;;;;23.07;13.77;;;3.30;86.30;;;;;;5010158;28;20086;-74
2023/12/14 01:39:55;;;;;;;26.60;14.87;;;3.30;86.30;;;;;;5005327;28;20477;-74
2023/12/14 01:42:21;;;;;;;22.87;13.73;;;3.30;86.30;;;;;;5010475;28;20052;-74
2023/12/14 01:44:47;;;;;;;26.70;14.90;;;3.30;86.40;;;;;;5006510;28;20088;-74
2023/12/14 01:47:12;;;;;;;25.30;14.50;;;3.30;86.30;;;;;;5019837;28;20057;-74
2023/12/14 01:49:38;;;;;;;21.03;13.53;;;3.30;86.40;;;;;;5012168;28;20054;-75
2023/12/14 01:52:05;;;;;;;27.10;14.70;;;3.40;86.40;;;;;;5005578;28;20579;-73
2023/12/14 01:54:31;;;;;;;21.73;13.50;;;3.30;86.30;;;;;;5019797;28;20049;-75
2023/12/14 01:56:56;;;;;;;29.13;13.97;;;3.30;86.40;;;;;;5024410;28;20053;-74
2023/12/14 01:59:22;;;;;;;23.90;13.50;;;3.30;86.40;;;;;;5018505;28;20076;-74
2023/12/14 02:01:53;;;;;;;25.93;14.33;;;3.30;86.30;;;;;;5024920;28;20309;-74
2023/12/14 02:04:18;;;;;;;24.13;13.00;;;3.30;86.30;;;;;;5025207;28;20056;-74
2023/12/14 02:06:44;;;;;;;26.20;13.60;;;3.30;86.20;;;;;;5024333;28;20057;-75
2023/12/14 02:09:10;;;;;;;24.73;13.67;;;3.30;86.20;;;;;;5025172;28;20136;-74
2023/12/14 02:11:36;;;;;;;22.03;13.70;;;3.30;86.30;;;;;;5025722;28;20141;-74
2023/12/14 02:14:06;;;;;;;27.00;13.50;;;3.40;86.20;;;;;;5029208;28;20065;-74
2023/12/14 02:16:32;;;;;;;19.70;12.10;;;3.40;86.20;;;;;;5027621;28;20493;-74
2023/12/14 02:18:58;;;;;;;21.90;13.27;;;3.40;86.10;;;;;;5027663;28;20103;-74
2023/12/14 02:21:23;;;;;;;21.13;13.13;;;3.40;86.20;;;;;;5028078;28;20054;-74
2023/12/14 02:23:49;;;;;;;23.57;13.23;;;3.40;86.00;;;;;;5003973;28;20124;-74
2023/12/14 02:26:15;;;;;;;23.40;12.97;;;3.40;86.10;;;;;;5008298;28;20058;-74
2023/12/14 02:28:41;;;;;;;23.80;13.00;;;3.40;86.10;;;;;;5014966;28;20083;-74
2023/12/14 02:31:06;;;;;;;21.47;13.50;;;3.40;86.00;;;;;;5006637;28;20149;-74
2023/12/14 02:33:32;;;;;;;19.53;12.17;;;3.40;86.00;;;;;;5022442;28;20064;-74
2023/12/14 02:35:58;;;;;;;23.40;11.53;;;3.40;85.90;;;;;;4981416;28;1085262;-74
2023/12/14 02:38:23;;;;;;;25.07;13.70;;;3.40;85.90;;;;;;5009988;28;20158;-74
2023/12/14 02:40:52;;;;;;;20.80;12.40;;;3.30;85.90;;;;;;5009091;28;20080;-74
2023/12/14 02:43:19;;;;;;;24.93;12.73;;;3.40;86.00;;;;;;5020876;28;20041;-74
2023/12/14 02:45:45;;;;;;;21.30;13.40;;;3.40;86.00;;;;;;5044556;28;20054;-74
2023/12/14 02:48:11;;;;;;;24.10;13.97;;;3.40;86.00;;;;;;5029828;28;20429;-74
2023/12/14 02:50:37;;;;;;;26.30;13.83;;;3.40;86.10;;;;;;5029337;28;20049;-74
2023/12/14 02:53:03;;;;;;;24.27;14.17;;;3.40;86.10;;;;;;5029287;28;20056;-74
2023/12/14 02:55:29;;;;;;;25.27;13.90;;;3.30;86.10;;;;;;5017650;28;20447;-74
2023/12/14 02:57:54;;;;;;;30.77;15.17;;;3.40;86.10;;;;;;5027447;28;20099;-74
2023/12/14 03:00:20;;;;;;;39.20;15.70;;;3.40;86.10;;;;;;5028809;28;20045;-74
2023/12/14 03:02:46;;;;;;;27.03;15.03;;;3.40;86.10;;;;;;5028825;28;20417;-74
2023/12/14 03:05:11;;;;;;;30.03;15.70;;;3.40;86.20;;;;;;5028282;28;20045;-74
2023/12/14 03:07:37;;;;;;;29.23;14.77;;;3.30;86.20;;;;;;5028495;28;20057;-74
2023/12/14 03:10:04;;;;;;;30.57;15.13;;;3.40;86.30;;;;;;5028094;28;20049;-72
2023/12/14 03:12:29;;;;;;;29.60;14.70;;;3.30;86.30;;;;;;5029659;28;20063;-73
2023/12/14 03:14:55;;;;;;;33.30;15.80;;;3.30;86.20;;;;;;5029601;28;20053;-74
2023/12/14 03:17:21;;;;;;;25.87;14.67;;;3.40;86.40;;;;;;5028952;28;20139;-73
2023/12/14 03:19:46;;;;;;;26.40;14.30;;;3.40;86.30;;;;;;5029726;28;20057;-73
2023/12/14 03:22:12;;;;;;;28.57;14.37;;;3.40;86.40;;;;;;5026416;28;20504;-74
2023/12/14 03:24:38;;;;;;;33.00;15.57;;;3.40;86.40;;;;;;5029355;28;20060;-74
2023/12/14 03:27:04;;;;;;;31.83;15.57;;;3.40;86.40;;;;;;5028208;28;20493;-74
2023/12/14 03:29:31;;;;;;;28.53;14.73;;;3.40;86.50;;;;;;5028672;28;20199;-74
2023/12/14 03:31:57;;;;;;;30.87;15.80;;;3.40;86.40;;;;;;5027967;28;20509;-73
2023/12/14 03:34:24;;;;;;;28.57;15.03;;;3.30;86.50;;;;;;5009358;28;20042;-74
2023/12/14 03:36:49;;;;;;;29.60;16.00;;;3.30;86.50;;;;;;5015514;28;20047;-74
2023/12/14 03:39:16;;;;;;;27.27;15.43;;;3.30;86.40;;;;;;5027990;28;20056;-74
2023/12/14 03:41:42;;;;;;;31.07;16.80;;;3.30;86.40;;;;;;5025435;28;20049;-74
2023/12/14 03:44:08;;;;;;;33.63;16.37;;;3.40;86.50;;;;;;5008739;28;20497;-74
2023/12/14 03:46:34;;;;;;;34.77;16.10;;;3.40;86.40;;;;;;5034106;28;20064;-73
2023/12/14 03:49:00;;;;;;;34.03;16.57;;;3.30;86.40;;;;;;5027511;28;20057;-74
2023/12/14 03:51:26;;;;;;;30.27;16.53;;;3.40;86.40;;;;;;5028157;28;20652;-74
2023/12/14 03:53:51;;;;;;;33.30;17.20;;;3.40;86.40;;;;;;5028715;28;20052;-74
2023/12/14 03:56:17;;;;;;;33.37;17.37;;;3.40;86.40;;;;;;5009176;28;20069;-74
2023/12/14 03:58:43;;;;;;;32.77;16.77;;;3.40;86.50;;;;;;5024943;28;20522;-74
2023/12/14 04:01:18;;;;;;;28.50;17.43;;;3.40;86.50;;;;;;5027331;28;20664;-74
2023/12/14 04:03:44;;;;;;;28.10;17.30;;;3.40;86.50;;;;;;5028396;28;20482;-73
2023/12/14 04:06:14;;;;;;;35.37;16.87;;;3.40;86.40;;;;;;5026619;28;20084;-74
2023/12/14 04:08:40;;;;;;;31.90;16.77;;;3.30;86.50;;;;;;5028492;28;20061;-74
2023/12/14 04:11:07;;;;;;;29.77;16.43;;;3.40;86.50;;;;;;5026184;28;20519;-74
2023/12/14 04:13:33;;;;;;;28.93;17.43;;;3.30;86.50;;;;;;5026764;28;20049;-74
2023/12/14 04:15:59;;;;;;;30.70;17.00;;;3.40;86.50;;;;;;5027733;28;20061;-74
2023/12/14 04:18:24;;;;;;;32.50;17.33;;;3.40;86.40;;;;;;5028057;28;20405;-74
2023/12/14 04:20:50;;;;;;;33.60;17.97;;;3.40;86.40;;;;;;5027792;28;20132;-74
2023/12/14 04:23:16;;;;;;;29.37;17.17;;;3.30;86.40;;;;;;5028171;28;20131;-75
2023/12/14 04:25:42;;;;;;;32.33;16.63;;;3.30;86.50;;;;;;5027605;28;20068;-74
2023/12/14 04:28:07;;;;;;;30.93;17.70;;;3.30;86.40;;;;;;5027557;28;20115;-74
2023/12/14 04:30:33;;;;;;;29.80;18.00;;;3.30;86.50;;;;;;5011197;28;20050;-74
2023/12/14 04:32:59;;;;;;;31.50;17.70;;;3.30;86.50;;;;;;5016561;28;20124;-74
2023/12/14 04:35:24;;;;;;;32.23;17.80;;;3.30;86.40;;;;;;5022244;28;20048;-74
2023/12/14 04:37:50;;;;;;;31.43;17.27;;;3.30;86.40;;;;;;5007888;28;20133;-73
2023/12/14 04:40:16;;;;;;;33.73;18.33;;;3.30;86.40;;;;;;5006822;28;20588;-74
2023/12/14 04:42:41;;;;;;;33.90;17.67;;;3.30;86.40;;;;;;5016551;28;20053;-74
2023/12/14 04:45:10;;;;;;;40.63;18.13;;;3.30;86.40;;;;;;5026339;28;20403;-74
2023/12/14 04:47:36;;;;;;;29.77;17.97;;;3.30;86.50;;;;;;5027524;28;20060;-74
2023/12/14 04:50:02;;;;;;;31.73;18.00;;;3.30;86.40;;;;;;5027371;28;20045;-74
2023/12/14 04:52:28;;;;;;;32.47;17.40;;;3.30;86.50;;;;;;5007196;28;20149;-74
2023/12/14 04:54:54;;;;;;;34.43;17.70;;;3.30;86.50;;;;;;5017131;28;20053;-74
2023/12/14 04:57:19;;;;;;;33.27;18.10;;;3.30;86.50;;;;;;5021400;28;20475;-74
2023/12/14 04:59:45;;;;;;;31.07;19.03;;;3.30;86.50;;;;;;5018241;28;20052;-74
2023/12/14 05:02:11;;;;;;;40.23;18.63;;;3.30;86.60;;;;;;5005682;28;20057;-74
2023/12/14 05:04:36;;;;;;;38.17;18.30;;;3.30;86.50;;;;;;5019218;28;20334;-74
2023/12/14 05:07:02;;;;;;;36.07;18.30;;;3.30;86.50;;;;;;5022908;28;20056;-74
2023/12/14 05:09:28;;;;;;;36.30;17.67;;;3.30;86.60;;;;;;5024513;28;20072;-74
2023/12/14 05:11:54;;;;;;;35.63;18.10;;;3.40;86.60;;;;;;5023791;28;20556;-74
2023/12/14 05:14:19;;;;;;;36.00;18.23;;;3.30;86.60;;;;;;5023887;28;20486;-74
2023/12/14 05:16:45;;;;;;;34.93;18.13;;;3.30;86.50;;;;;;5023851;28;20049;-74
2023/12/14 05:19:12;;;;;;;30.60;17.30;;;3.30;86.50;;;;;;5024410;28;20512;-74
2023/12/14 05:21:38;;;;;;;31.73;17.90;;;3.30;86.50;;;;;;5024949;28;20049;-74
2023/12/14 05:24:04;;;;;;;34.33;17.73;;;3.30;86.60;;;;;;5035739;28;20447;-74
2023/12/14 05:26:30;;;;;;;37.87;19.10;;;3.30;86.60;;;;;;5046124;28;20045;-74
2023/12/14 05:28:55;;;;;;;36.20;19.33;;;3.30;86.60;;;;;;5042869;28;20072;-71
2023/12/14 05:31:21;;;;;;;31.00;18.40;;;3.40;86.60;;;;;;5025174;28;20053;-74
2023/12/14 05:33:47;;;;;;;35.37;19.00;;;3.30;86.70;;;;;;5010772;28;20124;-75
2023/12/14 05:36:13;;;;;;;38.47;18.53;;;3.30;86.70;;;;;;5014344;28;20060;-74
2023/12/14 05:38:39;;;;;;;31.87;18.43;;;3.30;86.70;;;;;;5026456;28;20052;-74
2023/12/14 05:41:05;;;;;;;37.40;19.00;;;3.30;86.60;;;;;;5022615;28;20046;-74
2023/12/14 05:43:31;;;;;;;37.13;20.37;;;3.30;86.70;;;;;;5024431;28;20100;-74
2023/12/14 05:45:57;;;;;;;35.17;18.93;;;3.30;86.60;;;;;;5030411;28;20045;-74
2023/12/14 05:48:22;;;;;;;33.63;19.13;;;3.30;86.70;;;;;;5042425;28;20401;-73
2023/12/14 05:50:48;;;;;;;36.83;17.73;;;3.30;86.70;;;;;;5042853;28;20057;-74
2023/12/14 05:53:14;;;;;;;34.90;18.73;;;3.30;86.70;;;;;;5031106;28;20045;-74
2023/12/14 05:55:41;;;;;;;35.60;18.73;;;3.30;86.70;;;;;;5024048;28;20052;-73
2023/12/14 05:58:07;;;;;;;37.47;19.13;;;3.30;86.80;;;;;;5040625;28;20056;-74
2023/12/14 06:00:35;;;;;;;36.27;18.20;;;3.30;86.70;;;;;;5025264;28;20053;-74
2023/12/14 06:03:01;;;;;;;33.43;18.50;;;3.30;86.70;;;;;;5025150;28;20049;-74
2023/12/14 06:05:26;;;;;;;37.63;18.33;;;3.30;86.70;;;;;;5025419;28;20654;-73
2023/12/14 06:07:52;;;;;;;36.30;17.07;;;3.30;86.70;;;;;;5026059;28;20049;-74
2023/12/14 06:10:18;;;;;;;37.00;19.33;;;3.30;86.80;;;;;;5024128;28;20104;-73
2023/12/14 06:12:43;;;;;;;41.13;28.47;;;3.30;86.70;;;;;;5026448;28;20049;-74
2023/12/14 06:15:10;;;;;;;36.37;18.03;;;3.30;86.80;;;;;;5024778;28;20045;-74
2023/12/14 06:17:38;;;;;;;35.77;18.77;;;3.30;86.90;;;;;;5025909;28;20080;-74
2023/12/14 06:20:05;;;;;;;32.87;17.13;;;3.30;86.90;;;;;;5023984;28;20045;-73
2023/12/14 06:22:31;;;;;;;40.33;18.10;;;3.30;86.80;;;;;;5024855;28;20041;-73
2023/12/14 06:24:56;;;;;;;32.63;18.50;;;3.30;86.90;;;;;;5025896;28;20049;-73
2023/12/14 06:27:26;;;;;;;33.30;18.20;;;3.30;86.90;;;;;;5041107;28;20045;-74
2023/12/14 06:29:52;;;;;;;38.97;19.70;;;3.30;86.90;;;;;;5025441;28;20560;-74
2023/12/14 06:32:18;;;;;;;35.60;19.50;;;3.30;86.90;;;;;;5021266;28;20104;-74
2023/12/14 06:34:43;;;;;;;40.23;18.87;;;3.30;86.90;;;;;;5005102;28;20050;-74
2023/12/14 06:37:10;;;;;;;39.70;19.17;;;3.30;86.90;;;;;;5022394;28;20140;-74
2023/12/14 06:39:36;;;;;;;39.73;18.63;;;3.30;86.90;;;;;;5025347;28;20075;-73
2023/12/14 06:42:01;;;;;;;37.57;17.20;;;3.30;86.80;;;;;;5021620;28;20050;-74
2023/12/14 06:44:27;;;;;;;36.63;18.07;;;3.30;86.90;;;;;;4988159;28;20069;-74
2023/12/14 06:46:54;;;;;;;37.33;19.43;;;3.30;86.80;;;;;;5004580;28;20050;-74
2023/12/14 06:49:21;;;;;;;35.03;18.23;;;3.30;87.00;;;;;;5015098;28;20041;-73
2023/12/14 06:51:46;;;;;;;26.67;15.83;;;3.30;87.00;;;;;;5024929;28;20432;-73
2023/12/14 06:54:12;;;;;;;37.23;20.27;;;3.30;87.00;;;;;;5013495;28;20057;-74
2023/12/14 06:56:38;;;;;;;34.27;18.53;;;3.30;86.90;;;;;;5021280;28;20436;-74
2023/12/14 06:59:03;;;;;;;93.97;86.03;;;3.30;87.00;;;;;;5028222;28;20046;-74
2023/12/14 07:01:29;;;;;;;38.43;19.87;;;3.30;87.00;;;;;;5028395;28;20057;-74
2023/12/14 07:03:55;;;;;;;38.33;20.07;;;3.30;87.00;;;;;;5044285;28;20048;-74
2023/12/14 07:06:21;;;;;;;33.10;18.53;;;3.30;87.00;;;;;;5028569;28;20141;-74
2023/12/14 07:08:47;;;;;;;42.07;19.07;;;3.30;87.00;;;;;;5029475;28;20064;-74
2023/12/14 07:11:13;;;;;;;38.93;19.10;;;3.30;87.00;;;;;;5028536;28;20041;-74
2023/12/14 07:13:39;;;;;;;35.93;22.27;;;3.30;87.00;;;;;;5029369;28;20060;-74
2023/12/14 07:16:10;;;;;;;48.70;23.17;;;3.30;87.00;;;;;;5028498;28;20061;-73
2023/12/14 07:18:40;;;;;;;41.43;22.73;;;3.30;87.00;;;;;;5027856;28;20053;-74
2023/12/14 07:21:06;;;;;;;36.97;21.20;;;3.30;87.00;;;;;;5028232;28;20132;-74
2023/12/14 07:23:32;;;;;;;45.17;23.43;;;3.30;87.10;;;;;;5029866;28;20129;-74
2023/12/14 07:25:58;;;;;;;39.70;22.53;;;3.30;87.00;;;;;;5027761;28;20423;-73
2023/12/14 07:28:24;;;;;;;41.30;22.57;;;3.30;87.00;;;;;;5027909;28;20046;-74
2023/12/14 07:30:50;;;;;;;36.07;23.07;;;3.30;87.10;;;;;;5025307;28;20129;-74
2023/12/14 07:33:16;;;;;;;38.50;22.50;;;3.30;87.00;;;;;;5021260;28;20055;-74
2023/12/14 07:35:42;;;;;;;45.17;23.17;;;3.30;87.10;;;;;;5024944;28;20053;-73
2023/12/14 07:38:12;;;;;;;38.53;21.27;;;3.30;87.00;;;;;;5025629;28;20068;-73
2023/12/14 07:40:41;;;;;;;40.90;21.73;;;3.30;87.10;;;;;;5026563;28;20041;-73
2023/12/14 07:43:07;;;;;;;45.00;22.23;;;3.30;87.10;;;;;;5025394;28;20404;-73
2023/12/14 07:45:34;;;;;;;37.97;22.47;;;3.30;87.00;;;;;;5026569;28;20474;-73
2023/12/14 07:47:59;;;;;;;40.97;22.30;;;3.30;87.10;;;;;;5027051;28;20041;-73
2023/12/14 07:50:26;;;;;;;41.83;24.23;;;3.30;87.10;;;;;;5025671;28;20063;-74
2023/12/14 07:52:52;;;;;;;39.83;22.07;;;3.30;87.20;;;;;;5026786;28;20045;-74
2023/12/14 07:55:18;;;;;;;44.30;24.10;;;3.30;87.10;;;;;;5016696;28;20129;-74
2023/12/14 07:57:44;;;;;;;42.67;23.60;;;3.30;87.20;;;;;;5007986;28;20191;-74
2023/12/14 08:00:10;;;;;;;39.60;26.43;;;3.30;87.20;;;;;;4995675;28;20370;-74
2023/12/14 08:02:36;;;;;;;37.53;25.93;;;3.30;87.20;;;;;;4994694;28;20064;-74
2023/12/14 08:05:03;;;;;;;36.20;25.10;;;3.30;87.30;;;;;;4996743;28;20542;-74
2023/12/14 08:07:29;;;;;;;46.70;27.50;;;3.30;87.20;;;;;;5001208;28;20062;-74
2023/12/14 08:09:55;;;;;;;41.17;25.93;;;3.30;87.20;;;;;;4996497;28;20122;-74
2023/12/14 08:12:22;;;;;;;38.33;26.60;;;3.30;87.20;;;;;;4993984;28;20425;-74
2023/12/14 08:14:48;;;;;;;37.43;25.80;;;3.30;87.30;;;;;;4984483;28;20046;-74
2023/12/14 08:17:13;;;;;;;39.10;33.40;;;3.30;87.20;;;;;;4985176;28;20078;-74
2023/12/14 08:19:39;;;;;;;38.90;26.60;;;3.30;87.20;;;;;;5001941;28;20046;-73
2023/12/14 08:22:05;;;;;;;40.43;27.33;;;3.40;87.30;;;;;;5002185;28;20116;-73
2023/12/14 08:24:30;;;;;;;36.37;26.40;;;3.40;87.30;;;;;;5010315;28;20057;-74
2023/12/14 08:26:56;;;;;;;41.00;28.30;;;3.40;87.30;;;;;;5012270;28;20057;-72
2023/12/14 08:29:22;;;;;;;42.83;28.03;;;3.40;87.30;;;;;;5003393;28;20058;-73
2023/12/14 08:31:48;;;;;;;35.10;18.03;;;3.40;87.40;;;;;;5011825;28;20213;-74
2023/12/14 08:34:14;;;;;;;33.33;19.47;;;3.50;87.40;;;;;;4997056;28;20050;-73
2023/12/14 08:36:40;;;;;;;36.53;19.67;;;3.50;87.40;;;;;;4996674;28;20057;-74
2023/12/14 08:39:06;;;;;;;41.10;19.33;;;3.50;87.50;;;;;;4999185;28;20065;-73
2023/12/14 08:41:32;;;;;;;36.77;19.20;;;3.50;87.50;;;;;;4998476;28;20137;-73
2023/12/14 08:43:58;;;;;;;43.63;27.37;;;3.50;87.50;;;;;;5013826;28;20050;-73
2023/12/14 08:46:23;;;;;;;43.47;25.73;;;3.50;87.40;;;;;;4994717;28;20108;-73
2023/12/14 08:48:49;;;;;;;37.57;24.20;;;3.50;87.50;;;;;;5002442;28;20563;-74
2023/12/14 08:51:15;;;;;;;42.87;25.00;;;3.50;87.40;;;;;;4990152;28;20057;-74
2023/12/14 08:53:40;;;;;;;38.20;24.83;;;3.50;87.40;;;;;;4995638;28;20110;-74
2023/12/14 08:56:08;;;;;;;37.37;23.40;;;3.60;87.50;;;;;;4992617;28;20160;-74
2023/12/14 08:58:34;;;;;;;41.43;24.00;;;3.60;87.50;;;;;;4999554;28;20797;-73
2023/12/14 09:00:59;;;;;;;40.93;24.33;;;3.60;87.50;;;;;;4989625;28;20180;-74
2023/12/14 09:03:26;;;;;;;46.53;25.70;;;3.60;87.60;;;;;;4997444;28;20116;-74
2023/12/14 09:05:52;;;;;;;41.90;25.03;;;3.70;87.60;;;;;;4999410;28;20053;-74
2023/12/14 09:08:18;;;;;;;48.90;27.20;;;3.70;87.60;;;;;;5008255;28;20156;-74
2023/12/14 09:10:44;;;;;;;41.23;27.83;;;3.70;87.60;;;;;;4999365;28;20046;-74
2023/12/14 09:13:10;;;;;;;45.87;24.37;;;3.70;87.50;;;;;;5005918;28;20103;-74
2023/12/14 09:15:36;;;;;;;40.60;23.13;;;3.70;87.50;;;;;;5008034;28;20512;-74
2023/12/14 09:18:02;;;;;;;39.07;25.17;;;3.70;87.50;;;;;;4999475;28;20124;-74
2023/12/14 09:20:28;;;;;;;42.57;25.60;;;3.70;87.50;;;;;;5008707;28;20555;-74
2023/12/14 09:22:54;;;;;;;48.43;24.83;;;3.80;87.50;;;;;;4997820;28;20062;-74
2023/12/14 09:25:20;;;;;;;39.13;23.20;;;3.80;87.40;;;;;;5023523;28;20069;-73
2023/12/14 09:27:45;;;;;;;39.10;24.43;;;3.90;87.50;;;;;;5010180;28;20045;-73
2023/12/14 09:30:12;;;;;;;39.03;23.70;;;3.90;87.50;;;;;;4992062;28;20046;-74
2023/12/14 09:32:39;;;;;;;37.90;24.83;;;3.90;87.50;;;;;;4992703;28;20060;-74
2023/12/14 09:35:06;;;;;;;41.13;25.83;;;3.90;87.40;;;;;;4999604;28;20155;-73
2023/12/14 09:37:32;;;;;;;39.03;23.70;;;3.90;87.30;;;;;;4993158;28;20520;-73
2023/12/14 09:39:57;;;;;;;39.37;24.93;;;3.90;87.40;;;;;;4990281;28;20065;-74
2023/12/14 09:42:24;;;;;;;41.67;26.07;;;4.00;87.40;;;;;;4993461;28;20062;-74
2023/12/14 09:44:52;;;;;;;42.97;23.70;;;3.90;87.50;;;;;;4998415;28;20106;-74
2023/12/14 09:47:18;;;;;;;37.07;24.30;;;4.00;87.30;;;;;;5004575;28;20057;-73
2023/12/14 09:49:45;;;;;;;40.03;25.03;;;4.00;87.20;;;;;;4998171;28;20547;-74
2023/12/14 09:52:11;;;;;;;39.20;24.60;;;4.00;87.20;;;;;;5005778;28;20057;-74
2023/12/14 09:54:37;;;;;;;42.57;24.53;;;4.00;87.20;;;;;;5005016;28;20057;-74
2023/12/14 09:57:03;;;;;;;36.57;23.43;;;4.00;87.20;;;;;;4999106;28;20332;-74
2023/12/14 09:59:29;;;;;;;37.30;22.37;;;4.00;87.10;;;;;;4992280;28;20449;-74
2023/12/14 10:02:09;;;;;;;39.83;27.27;;;4.00;86.90;;;;;;4988549;28;20097;-74
2023/12/14 10:04:35;;;;;;;33.33;21.23;;;4.10;87.00;;;;;;4990773;28;20085;-73
2023/12/14 10:07:06;;;;;;;41.77;23.93;;;4.00;86.90;;;;;;4988002;28;20066;-73
2023/12/14 10:09:33;;;;;;;29.42;17.02;;;4.10;86.90;;;;;;4987554;28;20127;-74
2023/12/14 10:12:07;;;;;;;39.10;23.13;;;4.10;86.60;;;;;;4985994;28;20120;-74
2023/12/14 10:14:33;;;;;;;33.70;21.47;;;4.00;86.30;;;;;;4986289;28;20718;-74
2023/12/14 10:17:12;;;;;;;38.93;26.17;;;4.10;86.40;;;;;;4986685;28;20069;-74
2023/12/14 10:19:43;;;;;;;36.43;22.17;;;4.10;86.40;;;;;;4987171;28;20382;-74
2023/12/14 10:22:08;;;;;;;37.53;22.63;;;4.00;86.20;;;;;;4994183;28;20061;-74
2023/12/14 10:24:35;;;;;;;35.53;22.23;;;4.10;86.20;;;;;;4986710;28;20042;-74
2023/12/14 10:27:07;;;;;;;38.77;22.53;;;4.10;86.30;;;;;;4988078;28;20054;-74
2023/12/14 10:29:37;;;;;;;46.87;23.97;;;4.10;86.50;;;;;;4987777;28;20057;-73
2023/12/14 10:32:07;;;;;;;35.80;24.37;;;4.10;86.30;;;;;;4988978;28;20054;-74
2023/12/14 10:34:33;;;;;;;39.80;22.23;;;4.20;86.20;;;;;;4988590;28;20069;-74
2023/12/14 10:37:00;;;;;;;38.87;23.50;;;4.20;86.20;;;;;;4991656;28;20049;-74
2023/12/14 10:39:27;;;;;;;34.67;23.27;;;4.20;86.20;;;;;;4992546;28;20054;-74
2023/12/14 10:41:54;;;;;;;34.80;23.03;;;4.30;86.20;;;;;;4993107;28;20575;-74
2023/12/14 10:44:26;;;;;;;36.97;23.40;;;4.40;86.20;;;;;;4986307;28;20054;-74
2023/12/14 10:46:58;;;;;;;38.15;22.50;;;4.40;86.00;;;;;;4991736;28;20049;-73
2023/12/14 10:49:25;;;;;;;32.97;21.93;;;4.40;86.10;;;;;;4995120;28;21195;-73
2023/12/14 10:51:56;;;;;;;35.67;23.20;;;4.40;86.00;;;;;;4994478;28;20057;-73
2023/12/14 10:54:25;;;;;;;35.63;21.73;;;4.50;85.80;;;;;;4996842;28;20065;-74
2023/12/14 10:56:56;;;;;;;37.43;23.30;;;4.50;85.50;;;;;;4995780;28;20065;-73
2023/12/14 10:59:23;;;;;;;34.83;21.33;;;4.50;85.60;;;;;;4999264;28;20048;-74
2023/12/14 11:01:53;;;;;;;39.13;22.47;;;4.50;85.50;;;;;;4994247;28;20053;-74
2023/12/14 11:04:21;;;;;;;36.87;23.03;;;4.50;85.50;;;;;;5000714;28;20077;-74
2023/12/14 11:06:48;;;;;;;35.70;21.53;;;4.60;85.50;;;;;;4991522;28;20042;-74
2023/12/14 11:09:18;;;;;;;32.93;22.33;;;4.70;85.60;;;;;;4994224;28;20050;-72
2023/12/14 11:11:53;;;;;;;42.80;23.67;;;4.70;85.50;;;;;;4992507;28;20050;-74
2023/12/14 11:14:19;;;;;;;29.87;20.60;;;4.80;85.10;;;;;;4995326;28;20467;-75
2023/12/14 11:16:46;;;;;;;32.10;21.33;;;5.00;84.70;;;;;;4991087;28;20614;-75
2023/12/14 11:19:21;;;;;;;36.67;22.20;;;5.00;84.70;;;;;;4992632;28;20046;-75
2023/12/14 11:22:12;;;;;;;34.57;22.07;;;5.30;84.70;;;;;;4989706;28;20053;-75
2023/12/14 11:24:43;;;;;;;22.85;16.25;;;5.50;84.50;;;;;;4991292;28;20527;-75
2023/12/14 11:27:09;;;;;;;23.77;15.18;;;5.60;84.40;;;;;;4996582;28;20111;-75
2023/12/14 11:29:39;;;;;;;33.30;20.53;;;5.70;84.00;;;;;;4997285;28;20084;-75
2023/12/14 11:32:09;;;;;;;26.58;19.55;;;5.70;83.60;;;;;;4997147;28;20061;-74
2023/12/14 11:34:34;;;;;;;29.27;20.27;;;5.60;82.80;;;;;;5008578;28;20093;-75
2023/12/14 11:37:00;;;;;;;28.10;20.23;;;5.60;83.10;;;;;;4990969;28;21429;-75
2023/12/14 11:39:30;;;;;;;30.87;21.00;;;5.50;82.20;;;;;;4994091;28;20136;-75
2023/12/14 11:42:04;;;;;;;30.03;19.57;;;5.30;82.60;;;;;;4993325;28;20417;-75
2023/12/14 11:44:30;;;;;;;30.50;19.20;;;5.30;83.20;;;;;;4955321;28;20066;-75
2023/12/14 11:46:56;;;;;;;31.03;19.87;;;5.30;83.40;;;;;;4989374;28;20058;-75
2023/12/14 11:49:26;;;;;;;27.80;19.43;;;5.20;83.50;;;;;;4976389;28;20048;-75
2023/12/14 11:51:54;;;;;;;33.80;21.80;;;5.20;83.70;;;;;;4988809;28;20058;-75
2023/12/14 11:54:20;;;;;;;31.73;19.87;;;5.10;83.20;;;;;;4988983;28;20413;-75
2023/12/14 11:56:50;;;;;;;32.27;20.23;;;5.10;83.60;;;;;;4956187;28;20419;-75
2023/12/14 11:59:17;;;;;;;30.73;19.23;;;5.10;83.20;;;;;;5006682;28;20594;-75
2023/12/14 12:01:58;;;;;;;28.13;19.70;;;5.10;83.10;;;;;;4989192;28;20450;-75
2023/12/14 12:04:24;;;;;;;23.55;15.75;;;5.10;83.20;;;;;;4998593;28;20402;-75
2023/12/14 12:06:58;;;;;;;34.37;20.03;;;5.10;81.90;;;;;;4997390;28;20112;-75
2023/12/14 12:09:40;;;;;;;30.73;19.43;;;5.10;82.10;;;;;;4991553;28;20058;-74
2023/12/14 12:12:08;;;;;;;30.17;19.57;;;5.10;82.60;;;;;;4990243;28;20894;-75
2023/12/14 12:14:34;;;;;;;29.10;19.33;;;5.20;83.00;;;;;;5003377;28;20053;-75
2023/12/14 12:17:00;;;;;;;26.73;20.03;;;5.20;82.40;;;;;;4999195;28;20533;-74
2023/12/14 12:19:25;;;;;;;28.13;20.30;;;5.20;81.90;;;;;;4997813;28;20061;-75
2023/12/14 12:21:51;;;;;;;29.90;19.43;;;5.10;81.90;;;;;;5007833;28;20055;-75
2023/12/14 12:24:17;;;;;;;29.43;20.20;;;5.10;81.40;;;;;;5009464;28;20075;-75
2023/12/14 12:26:42;;;;;;;25.73;19.80;;;5.00;81.30;;;;;;4995128;28;20065;-75
2023/12/14 12:29:08;;;;;;;29.70;19.47;;;5.00;81.60;;;;;;4994942;28;20107;-75
2023/12/14 12:31:34;;;;;;;32.43;22.30;;;5.00;81.80;;;;;;4999257;28;20089;-75
2023/12/14 12:34:00;;;;;;;37.50;32.97;;;5.00;81.80;;;;;;5001823;28;20054;-75